Terminal Aerodrome Forecast
Issued by NWS Cleveland, OH

Home | Current Version | Previous Version | Graphics & Text | Print | Product List | Glossary On
Versions: 1 2 3 4 5 6 7 8 9 10 11 12 13 14 15 16 17 18 19
000
FTUS41 KCLE 011720
TAFERI
TAF
KERI 011720Z 0118/0218 28010KT P6SM SKC
     FM012200 25007KT P6SM SKC
     FM020200 21010KT P6SM SKC
     FM021500 22012KT P6SM SKC=

USA.gov is the U.S. government's official web portal to all federal, state and local government web resources and services.